Time;durP1;ratioP1;P1;durP2;ratioP2;P2;SDS_P1;SDS_P2;PMS_P1;PMS_P2;Temp;Humidity;BMP_temperature;BMP_pressure;BME280_temperature;BME280_humidity;BME280_pressure;Samples;Min_cycle;Max_cycle;Signal;HPM_P1;HPM_P2
2021/07/13 00:01:49;;;;;;;;;;;20.30;99.90;;;;;;5048902;28;19909;-53
2021/07/13 00:04:14;;;;;;;;;;;20.20;99.90;;;;;;5045970;28;19979;-50
2021/07/13 00:06:40;;;;;;;;;;;20.30;99.90;;;;;;5047124;28;19913;-54
2021/07/13 00:09:06;;;;;;;;;;;20.20;99.90;;;;;;5049351;28;19999;-51
2021/07/13 00:11:31;;;;;;;;;;;20.20;99.90;;;;;;5049249;28;19908;-51
2021/07/13 00:13:57;;;;;;;;;;;20.20;99.90;;;;;;5048465;28;20631;-55
2021/07/13 00:16:22;;;;;;;;;;;20.20;99.90;;;;;;5041140;28;20371;-51
2021/07/13 00:18:48;;;;;;;;;;;20.20;99.90;;;;;;5030692;28;19992;-48
2021/07/13 00:21:13;;;;;;;;;;;20.10;99.90;;;;;;5045790;28;20336;-55
2021/07/13 00:23:39;;;;;;;;;;;20.10;99.90;;;;;;5050377;28;19908;-53
2021/07/13 00:26:05;;;;;;;;;;;20.10;99.90;;;;;;5051943;28;19912;-51
2021/07/13 00:28:31;;;;;;;;;;;20.10;99.90;;;;;;5037763;28;19944;-50
2021/07/13 00:30:56;;;;;;;;;;;20.10;99.90;;;;;;5045483;28;19914;-55
2021/07/13 00:33:22;;;;;;;;;;;20.00;99.90;;;;;;5033751;28;20007;-54
2021/07/13 00:35:47;;;;;;;;;;;20.00;99.90;;;;;;5050248;28;19919;-51
2021/07/13 00:38:12;;;;;;;;;;;20.00;99.90;;;;;;5048433;28;19920;-53
2021/07/13 00:40:38;;;;;;;;;;;20.00;99.90;;;;;;5052989;28;20352;-54
2021/07/13 00:43:04;;;;;;;;;;;20.00;99.90;;;;;;5046365;28;19908;-51
2021/07/13 00:45:29;;;;;;;;;;;20.00;99.90;;;;;;5046247;28;19913;-49
2021/07/13 00:47:55;;;;;;;;;;;20.00;99.90;;;;;;5052129;28;19971;-52
2021/07/13 00:50:22;;;;;;;;;;;20.00;99.90;;;;;;5032562;28;19909;-50
2021/07/13 00:52:48;;;;;;;;;;;20.00;99.90;;;;;;5052546;28;19979;-50
2021/07/13 00:55:13;;;;;;;;;;;20.00;99.90;;;;;;5046465;28;19909;-50
2021/07/13 00:57:40;;;;;;;;;;;20.00;99.90;;;;;;5052307;28;19913;-55
2021/07/13 01:00:07;;;;;;;;;;;20.00;99.90;;;;;;5069699;22;19929;-61
2021/07/13 01:02:33;;;;;;;;;;;19.90;99.90;;;;;;5070372;28;19912;-61
2021/07/13 01:05:00;;;;;;;;;;;19.90;99.90;;;;;;5086525;28;19935;-62
2021/07/13 01:07:38;;;;;;;;;;;20.00;99.90;;;;;;5087766;28;19909;-62
2021/07/13 01:10:09;;;;;;;;;;;19.90;99.90;;;;;;5058637;28;19909;-61
2021/07/13 01:12:41;;;;;;;;;;;19.90;99.90;;;;;;5047511;28;19969;-61
2021/07/13 01:15:07;;;;;;;;;;;19.90;99.90;;;;;;5042734;28;19964;-62
2021/07/13 01:17:59;;;;;;;;;;;20.00;99.90;;;;;;5052113;28;20576;-60
2021/07/13 01:20:43;;;;;;;;;;;20.00;99.90;;;;;;5022288;28;20513;-60
2021/07/13 01:23:18;;;;;;;;;;;20.00;99.90;;;;;;5066567;28;19959;-60
2021/07/13 01:25:43;;;;;;;;;;;20.00;99.90;;;;;;5050785;28;19913;-61
2021/07/13 01:28:17;;;;;;;;;;;20.00;99.90;;;;;;5052355;28;19916;-61
2021/07/13 01:30:45;;;;;;;;;;;20.00;99.90;;;;;;5050471;28;19931;-62
2021/07/13 01:33:18;;;;;;;;;;;20.00;99.90;;;;;;5066458;28;20375;-61
2021/07/13 01:35:46;;;;;;;;;;;19.90;99.90;;;;;;5050592;28;19995;-61
2021/07/13 01:38:12;;;;;;;;;;;20.00;99.90;;;;;;5051733;28;20375;-61
2021/07/13 01:40:40;;;;;;;;;;;20.00;99.90;;;;;;5051718;28;19916;-62
2021/07/13 01:43:07;;;;;;;;;;;20.00;99.90;;;;;;5051488;28;19916;-62
2021/07/13 01:45:33;;;;;;;;;;;20.00;99.90;;;;;;5051473;28;19912;-61
2021/07/13 01:47:59;;;;;;;;;;;20.00;99.90;;;;;;5051766;28;19909;-62
2021/07/13 01:50:26;;;;;;;;;;;20.00;99.90;;;;;;5052184;28;19909;-62
2021/07/13 01:52:52;;;;;;;;;;;20.00;99.90;;;;;;5052052;28;20489;-62
2021/07/13 01:55:18;;;;;;;;;;;20.00;99.90;;;;;;5067184;28;19913;-62
2021/07/13 01:57:44;;;;;;;;;;;19.90;99.90;;;;;;5052344;28;19909;-60
2021/07/13 02:00:11;;;;;;;;;;;20.00;99.90;;;;;;5050371;28;20588;-60
2021/07/13 02:02:36;;;;;;;;;;;20.00;99.90;;;;;;5051883;28;19973;-62
2021/07/13 02:05:03;;;;;;;;;;;20.00;99.90;;;;;;5051099;28;20291;-62
2021/07/13 02:07:31;;;;;;;;;;;20.00;99.90;;;;;;5050372;28;20333;-60
2021/07/13 02:09:57;;;;;;;;;;;20.00;99.90;;;;;;5050063;28;20520;-61
2021/07/13 02:12:23;;;;;;;;;;;19.90;99.90;;;;;;5066791;28;20008;-61
2021/07/13 02:14:48;;;;;;;;;;;19.90;99.90;;;;;;5049982;28;20637;-60
2021/07/13 02:17:13;;;;;;;;;;;19.90;99.90;;;;;;5051173;28;19909;-62
2021/07/13 02:19:39;;;;;;;;;;;19.90;99.90;;;;;;5051449;28;20272;-61
2021/07/13 02:22:05;;;;;;;;;;;19.90;99.90;;;;;;5051022;28;19959;-63
2021/07/13 02:24:30;;;;;;;;;;;19.90;99.90;;;;;;5051134;28;20031;-61
2021/07/13 02:26:59;;;;;;;;;;;19.80;99.90;;;;;;5051283;28;19942;-62
2021/07/13 02:29:29;;;;;;;;;;;19.80;99.90;;;;;;5044577;28;19955;-61
2021/07/13 02:31:57;;;;;;;;;;;19.70;99.90;;;;;;5050154;28;19989;-63
2021/07/13 02:34:23;;;;;;;;;;;19.70;99.90;;;;;;5050669;28;19908;-64
2021/07/13 02:36:50;;;;;;;;;;;19.70;99.90;;;;;;5050785;28;19909;-62
2021/07/13 02:39:17;;;;;;;;;;;19.70;99.90;;;;;;5044327;28;19915;-62
2021/07/13 02:41:43;;;;;;;;;;;19.70;99.90;;;;;;5066427;28;20286;-63
2021/07/13 02:44:10;;;;;;;;;;;19.70;99.90;;;;;;5050568;28;20372;-61
2021/07/13 02:46:44;;;;;;;;;;;19.60;99.90;;;;;;5050014;28;19954;-62
2021/07/13 02:49:18;;;;;;;;;;;19.70;99.90;;;;;;5050813;28;20410;-62
2021/07/13 02:51:44;;;;;;;;;;;19.60;99.90;;;;;;5050712;28;19916;-62
2021/07/13 02:54:10;;;;;;;;;;;19.60;99.90;;;;;;5049701;28;19939;-62
2021/07/13 02:56:38;;;;;;;;;;;19.60;99.90;;;;;;5050402;28;19909;-62
2021/07/13 02:59:04;;;;;;;;;;;19.60;99.90;;;;;;5050686;28;20034;-62
2021/07/13 03:01:30;;;;;;;;;;;19.60;99.90;;;;;;5050660;28;20383;-62
2021/07/13 03:03:57;;;;;;;;;;;19.60;99.90;;;;;;5049141;28;19912;-62
2021/07/13 03:06:23;;;;;;;;;;;19.60;99.90;;;;;;5050329;28;19954;-61
2021/07/13 03:08:49;;;;;;;;;;;19.60;99.90;;;;;;5048962;28;19909;-62
2021/07/13 03:11:14;;;;;;;;;;;19.60;99.90;;;;;;5050527;28;20337;-62
2021/07/13 03:13:40;;;;;;;;;;;19.50;99.90;;;;;;5048986;28;20422;-61
2021/07/13 03:16:06;;;;;;;;;;;19.50;99.90;;;;;;5050047;28;19944;-61
2021/07/13 03:18:32;;;;;;;;;;;19.60;99.90;;;;;;5050176;28;19909;-60
2021/07/13 03:21:01;;;;;;;;;;;19.60;99.90;;;;;;5048879;28;20278;-62
2021/07/13 03:23:27;;;;;;;;;;;19.50;99.90;;;;;;5050643;28;19909;-62
2021/07/13 03:25:53;;;;;;;;;;;19.50;99.90;;;;;;5048542;28;19913;-61
2021/07/13 03:28:20;;;;;;;;;;;19.50;99.90;;;;;;5050460;28;19916;-61
2021/07/13 03:30:46;;;;;;;;;;;19.50;99.90;;;;;;5048969;28;19995;-61
2021/07/13 03:33:13;;;;;;;;;;;19.50;99.90;;;;;;5050208;28;20399;-60
2021/07/13 03:35:38;;;;;;;;;;;19.50;99.90;;;;;;5048405;28;19909;-62
2021/07/13 03:38:04;;;;;;;;;;;19.60;99.90;;;;;;5049961;28;19915;-63
2021/07/13 03:40:30;;;;;;;;;;;19.60;99.90;;;;;;5050128;28;20010;-62
2021/07/13 03:42:56;;;;;;;;;;;19.60;99.90;;;;;;5049947;28;19913;-61
2021/07/13 03:45:22;;;;;;;;;;;19.60;99.90;;;;;;5049767;28;19913;-62
2021/07/13 03:47:49;;;;;;;;;;;19.60;99.90;;;;;;5050035;28;20325;-62
2021/07/13 03:50:15;;;;;;;;;;;19.60;99.90;;;;;;5048374;28;19909;-62
2021/07/13 03:52:41;;;;;;;;;;;19.60;99.90;;;;;;5048878;28;19920;-63
2021/07/13 03:55:06;;;;;;;;;;;19.60;99.90;;;;;;5049665;28;19909;-62
2021/07/13 03:57:32;;;;;;;;;;;19.60;99.90;;;;;;5053315;28;19915;-60
2021/07/13 03:59:57;;;;;;;;;;;19.60;99.90;;;;;;5052448;28;19917;-61
2021/07/13 04:02:23;;;;;;;;;;;19.60;99.90;;;;;;5054039;28;19951;-61
2021/07/13 04:04:48;;;;;;;;;;;19.60;99.90;;;;;;5053547;28;19917;-61
2021/07/13 04:07:14;;;;;;;;;;;19.60;99.90;;;;;;5052473;28;19962;-60
2021/07/13 04:09:39;;;;;;;;;;;19.60;99.90;;;;;;5052160;28;19932;-62
2021/07/13 04:12:05;;;;;;;;;;;19.60;99.90;;;;;;5052241;28;20140;-60
2021/07/13 04:14:31;;;;;;;;;;;19.60;99.90;;;;;;5053147;28;19923;-60
2021/07/13 04:16:56;;;;;;;;;;;19.60;99.90;;;;;;5051781;28;19909;-60
2021/07/13 04:19:22;;;;;;;;;;;19.60;99.90;;;;;;5053419;28;19908;-60
2021/07/13 04:21:47;;;;;;;;;;;19.60;99.90;;;;;;5052908;28;19999;-61
2021/07/13 04:24:12;;;;;;;;;;;19.70;99.90;;;;;;5053409;28;19909;-62
2021/07/13 04:26:38;;;;;;;;;;;19.70;99.90;;;;;;5053613;28;20103;-60
2021/07/13 04:29:03;;;;;;;;;;;19.70;99.90;;;;;;5053399;28;19909;-62
2021/07/13 04:31:30;;;;;;;;;;;19.70;99.90;;;;;;5053468;28;20008;-60
2021/07/13 04:33:56;;;;;;;;;;;19.70;99.90;;;;;;5051376;28;19967;-62
2021/07/13 04:36:21;;;;;;;;;;;19.70;99.90;;;;;;5052409;28;20314;-61
2021/07/13 04:38:47;;;;;;;;;;;19.70;99.90;;;;;;5050637;28;19909;-60
2021/07/13 04:41:12;;;;;;;;;;;19.70;99.90;;;;;;5051956;28;19909;-61
2021/07/13 04:43:38;;;;;;;;;;;19.70;99.90;;;;;;5052486;28;19955;-61
2021/07/13 04:46:03;;;;;;;;;;;19.70;99.90;;;;;;5051393;28;20028;-61
2021/07/13 04:48:29;;;;;;;;;;;19.70;99.90;;;;;;5052976;28;19909;-62
2021/07/13 04:50:54;;;;;;;;;;;19.70;99.90;;;;;;5053117;28;19999;-62
2021/07/13 04:53:20;;;;;;;;;;;19.70;99.90;;;;;;5053077;28;19913;-62
2021/07/13 04:55:45;;;;;;;;;;;19.70;99.90;;;;;;5052944;28;19909;-63
2021/07/13 04:58:11;;;;;;;;;;;19.70;99.90;;;;;;5052794;28;20563;-62
2021/07/13 05:00:36;;;;;;;;;;;19.70;99.90;;;;;;5051452;28;19917;-63
2021/07/13 05:03:01;;;;;;;;;;;19.70;99.90;;;;;;5052876;28;19912;-62
2021/07/13 05:05:27;;;;;;;;;;;19.80;99.90;;;;;;5052291;28;19913;-62
2021/07/13 05:07:53;;;;;;;;;;;19.80;99.90;;;;;;5051977;28;19909;-62
2021/07/13 05:10:18;;;;;;;;;;;19.80;99.90;;;;;;5052301;28;19988;-63
2021/07/13 05:12:45;;;;;;;;;;;19.80;99.90;;;;;;5052478;28;20014;-59
2021/07/13 05:15:11;;;;;;;;;;;19.80;99.90;;;;;;5051876;28;19924;-62
2021/07/13 05:17:38;;;;;;;;;;;19.80;99.90;;;;;;5051239;28;19909;-62
2021/07/13 05:20:08;;;;;;;;;;;19.80;99.90;;;;;;5052435;28;20302;-62
2021/07/13 05:22:34;;;;;;;;;;;19.90;99.90;;;;;;5067714;28;19909;-63
2021/07/13 05:24:59;;;;;;;;;;;19.90;99.90;;;;;;5051996;28;19913;-62
2021/07/13 05:27:25;;;;;;;;;;;19.90;99.90;;;;;;5052400;28;19996;-62
2021/07/13 05:29:51;;;;;;;;;;;19.90;99.90;;;;;;5052283;28;20013;-63
2021/07/13 05:32:16;;;;;;;;;;;20.00;99.90;;;;;;5052095;28;19908;-61
2021/07/13 05:34:43;;;;;;;;;;;20.10;99.90;;;;;;5051572;28;19909;-62
2021/07/13 05:37:09;;;;;;;;;;;20.10;99.90;;;;;;5058056;28;19932;-61
2021/07/13 05:39:34;;;;;;;;;;;20.20;99.90;;;;;;5051695;28;20000;-62
2021/07/13 05:42:00;;;;;;;;;;;20.20;99.90;;;;;;5051889;28;19916;-62
2021/07/13 05:44:25;;;;;;;;;;;20.30;99.90;;;;;;5051617;28;19952;-60
2021/07/13 05:46:51;;;;;;;;;;;20.30;99.90;;;;;;5051629;28;20573;-61
2021/07/13 05:49:16;;;;;;;;;;;20.30;99.90;;;;;;5051516;28;19909;-61
2021/07/13 05:51:43;;;;;;;;;;;20.30;99.90;;;;;;5051613;28;19956;-62
2021/07/13 05:54:09;;;;;;;;;;;20.40;99.90;;;;;;5051572;28;19913;-62
2021/07/13 05:56:34;;;;;;;;;;;20.40;99.90;;;;;;5051088;28;20519;-62
2021/07/13 05:59:00;;;;;;;;;;;20.50;99.90;;;;;;5051256;28;19913;-62
2021/07/13 06:01:26;;;;;;;;;;;20.50;99.90;;;;;;5051203;28;19912;-63
2021/07/13 06:03:52;;;;;;;;;;;20.50;99.90;;;;;;5050943;28;19912;-60
2021/07/13 06:06:17;;;;;;;;;;;20.50;99.90;;;;;;5050852;28;19917;-63
2021/07/13 06:08:43;;;;;;;;;;;20.50;99.90;;;;;;5051397;28;19963;-62
2021/07/13 06:11:08;;;;;;;;;;;20.50;99.90;;;;;;5051562;28;19913;-61
2021/07/13 06:13:34;;;;;;;;;;;20.50;99.90;;;;;;5051366;28;19955;-60
2021/07/13 06:15:59;;;;;;;;;;;20.60;99.90;;;;;;5051103;28;19935;-61
2021/07/13 06:18:25;;;;;;;;;;;20.70;99.90;;;;;;5051600;28;19909;-62
2021/07/13 06:20:50;;;;;;;;;;;20.80;99.90;;;;;;5050277;28;20330;-62
2021/07/13 06:23:15;;;;;;;;;;;20.90;99.90;;;;;;5051648;28;19908;-61
2021/07/13 06:25:42;;;;;;;;;;;21.00;99.90;;;;;;5051004;28;19917;-62
2021/07/13 06:28:08;;;;;;;;;;;21.10;99.90;;;;;;5051597;28;20334;-60
2021/07/13 06:30:34;;;;;;;;;;;21.30;99.90;;;;;;5051179;28;20000;-61
2021/07/13 06:33:00;;;;;;;;;;;21.30;99.90;;;;;;5050978;28;19974;-62
2021/07/13 06:35:26;;;;;;;;;;;21.50;99.90;;;;;;5050731;28;19916;-61
2021/07/13 06:37:51;;;;;;;;;;;21.70;99.90;;;;;;5050865;28;19924;-61
2021/07/13 06:40:24;;;;;;;;;;;21.70;99.90;;;;;;5076860;28;19912;-58
2021/07/13 06:42:50;;;;;;;;;;;21.90;99.90;;;;;;5078645;28;19926;-61
2021/07/13 06:45:15;;;;;;;;;;;22.00;99.90;;;;;;5079090;28;19936;-61
2021/07/13 06:47:41;;;;;;;;;;;22.10;99.90;;;;;;5079480;28;19904;-61
2021/07/13 06:50:06;;;;;;;;;;;22.20;99.90;;;;;;5076942;28;19909;-60
2021/07/13 06:52:32;;;;;;;;;;;22.30;99.90;;;;;;5079500;28;19916;-61
2021/07/13 06:55:02;;;;;;;;;;;22.30;99.90;;;;;;5077345;28;19909;-61
2021/07/13 06:57:27;;;;;;;;;;;22.50;99.90;;;;;;5079459;28;19940;-61
2021/07/13 07:02:31;;;;;;;;;;;22.80;99.90;;;;;;5084790;28;19935;-54
2021/07/13 07:04:56;;;;;;;;;;;22.90;99.90;;;;;;5085274;28;19912;-56
2021/07/13 07:07:22;;;;;;;;;;;23.00;99.90;;;;;;5086225;28;20033;-52
2021/07/13 07:09:47;;;;;;;;;;;22.90;99.90;;;;;;5086105;28;19995;-52
2021/07/13 07:12:13;;;;;;;;;;;23.00;99.90;;;;;;5085850;28;20094;-53
2021/07/13 07:14:38;;;;;;;;;;;23.10;99.90;;;;;;5081282;28;19987;-55
2021/07/13 07:17:04;;;;;;;;;;;23.20;99.90;;;;;;5084038;28;19908;-55
2021/07/13 07:19:29;;;;;;;;;;;23.30;99.90;;;;;;5082058;28;20142;-56
2021/07/13 07:21:54;;;;;;;;;;;23.30;99.90;;;;;;5083934;28;19909;-56
2021/07/13 07:24:20;;;;;;;;;;;23.40;99.90;;;;;;5086835;28;19930;-57
2021/07/13 07:26:45;;;;;;;;;;;23.60;99.90;;;;;;5083151;28;19935;-54
2021/07/13 07:29:11;;;;;;;;;;;23.80;99.90;;;;;;5085695;28;19909;-56
2021/07/13 07:31:36;;;;;;;;;;;24.00;99.90;;;;;;5082161;28;20279;-57
2021/07/13 07:34:02;;;;;;;;;;;24.20;99.90;;;;;;5083957;28;19909;-55
2021/07/13 07:36:28;;;;;;;;;;;24.30;99.90;;;;;;5084664;28;19908;-54
2021/07/13 07:38:53;;;;;;;;;;;24.50;99.90;;;;;;5085591;28;19912;-57
2021/07/13 07:41:20;;;;;;;;;;;24.50;99.90;;;;;;5080051;28;19908;-56
2021/07/13 07:43:46;;;;;;;;;;;24.50;99.90;;;;;;5086354;28;19915;-56
2021/07/13 07:46:11;;;;;;;;;;;24.60;99.90;;;;;;5077836;28;19952;-56
2021/07/13 07:48:37;;;;;;;;;;;24.60;99.90;;;;;;5086058;28;19959;-57
2021/07/13 07:51:02;;;;;;;;;;;24.70;99.90;;;;;;5075091;28;19909;-57
2021/07/13 07:53:28;;;;;;;;;;;24.90;99.90;;;;;;5070582;28;20306;-56
2021/07/13 07:55:54;;;;;;;;;;;24.90;99.90;;;;;;5072846;28;19999;-56
2021/07/13 07:58:20;;;;;;;;;;;24.90;99.90;;;;;;5067718;28;20446;-56
2021/07/13 08:00:46;;;;;;;;;;;25.00;99.90;;;;;;5072907;28;19921;-56
2021/07/13 08:03:12;;;;;;;;;;;25.20;99.90;;;;;;5065373;28;19916;-57
2021/07/13 08:05:37;;;;;;;;;;;25.10;99.90;;;;;;5072233;28;20390;-57
2021/07/13 08:08:03;;;;;;;;;;;25.30;99.90;;;;;;5070460;28;19962;-58
2021/07/13 08:10:29;;;;;;;;;;;25.50;99.90;;;;;;5069500;28;20550;-55
2021/07/13 08:12:54;;;;;;;;;;;25.60;99.90;;;;;;5072214;28;19915;-57
2021/07/13 08:15:20;;;;;;;;;;;25.80;99.90;;;;;;5066165;28;20375;-55
2021/07/13 08:17:46;;;;;;;;;;;26.00;99.90;;;;;;5073125;28;19919;-57
2021/07/13 08:20:13;;;;;;;;;;;26.00;99.90;;;;;;5046357;28;20013;-59
2021/07/13 08:22:39;;;;;;;;;;;26.00;99.90;;;;;;5054213;28;19908;-54
2021/07/13 08:25:05;;;;;;;;;;;26.20;99.90;;;;;;5070988;28;19908;-57
2021/07/13 08:27:31;;;;;;;;;;;26.30;99.90;;;;;;5070931;28;20004;-57
2021/07/13 08:29:57;;;;;;;;;;;26.30;99.90;;;;;;5071767;28;19952;-58
2021/07/13 08:32:22;;;;;;;;;;;26.40;99.90;;;;;;5066967;28;19931;-55
2021/07/13 08:34:48;;;;;;;;;;;26.50;99.90;;;;;;5072081;28;19909;-57
2021/07/13 08:37:13;;;;;;;;;;;26.60;99.90;;;;;;5068568;28;19935;-57
2021/07/13 08:39:39;;;;;;;;;;;26.80;99.90;;;;;;5067582;28;19917;-58
2021/07/13 08:42:05;;;;;;;;;;;27.00;99.90;;;;;;5071402;28;20007;-56
2021/07/13 08:44:31;;;;;;;;;;;27.00;99.90;;;;;;5049019;28;19908;-58
2021/07/13 08:46:57;;;;;;;;;;;26.90;99.90;;;;;;5070014;28;19970;-59
2021/07/13 08:49:23;;;;;;;;;;;27.00;99.90;;;;;;5072672;28;19970;-55
2021/07/13 08:51:49;;;;;;;;;;;27.00;99.90;;;;;;5069015;28;19972;-58
2021/07/13 08:54:15;;;;;;;;;;;27.20;99.90;;;;;;5071426;28;20003;-58
2021/07/13 08:56:40;;;;;;;;;;;27.60;99.90;;;;;;5067890;28;19912;-58
2021/07/13 08:59:06;;;;;;;;;;;27.80;99.90;;;;;;5070716;28;19912;-59
2021/07/13 09:01:31;;;;;;;;;;;28.00;99.90;;;;;;5066621;28;19917;-57
2021/07/13 09:03:58;;;;;;;;;;;28.10;99.90;;;;;;5069158;28;19908;-57
2021/07/13 09:06:25;;;;;;;;;;;28.10;99.90;;;;;;5071355;28;20003;-57
2021/07/13 09:08:51;;;;;;;;;;;28.10;99.90;;;;;;5068071;28;19909;-57
2021/07/13 09:11:20;;;;;;;;;;;28.10;99.90;;;;;;5070469;28;19913;-54
2021/07/13 09:13:49;;;;;;;;;;;28.20;99.90;;;;;;5067111;28;19928;-56
2021/07/13 09:16:23;;;;;;;;;;;28.30;99.90;;;;;;5062953;28;19977;-55
2021/07/13 09:18:52;;;;;;;;;;;28.40;99.90;;;;;;5066209;28;19936;-58
2021/07/13 09:21:32;;;;;;;;;;;28.40;99.90;;;;;;5063984;28;19908;-61
2021/07/13 09:24:01;;;;;;;;;;;28.60;99.90;;;;;;5071771;28;19912;-56
2021/07/13 09:26:45;;;;;;;;;;;28.70;99.90;;;;;;5067673;28;19912;-59
2021/07/13 09:29:29;;;;;;;;;;;28.80;99.90;;;;;;5070052;28;20404;-56
2021/07/13 09:31:56;;;;;;;;;;;29.10;99.90;;;;;;5065844;28;19977;-56
2021/07/13 09:34:21;;;;;;;;;;;29.30;99.90;;;;;;5039838;28;19909;-57
2021/07/13 09:36:49;;;;;;;;;;;29.40;99.90;;;;;;5069684;28;19931;-58
2021/07/13 09:39:20;;;;;;;;;;;29.50;99.90;;;;;;5060300;28;19913;-58
2021/07/13 09:41:49;;;;;;;;;;;29.60;99.90;;;;;;5068383;28;19919;-55
2021/07/13 09:44:20;;;;;;;;;;;29.60;99.00;;;;;;5057763;28;20002;-55
2021/07/13 09:46:46;;;;;;;;;;;29.60;98.70;;;;;;5066435;28;19939;-57
2021/07/13 09:49:16;;;;;;;;;;;29.70;98.60;;;;;;5070229;28;20394;-58
2021/07/13 09:51:42;;;;;;;;;;;29.80;98.70;;;;;;5066444;28;19909;-54
2021/07/13 09:54:26;;;;;;;;;;;29.50;98.60;;;;;;5069223;28;19909;-57
2021/07/13 09:56:52;;;;;;;;;;;29.50;98.40;;;;;;5065531;28;19908;-57
2021/07/13 09:59:17;;;;;;;;;;;29.70;99.50;;;;;;5050362;28;19913;-55
2021/07/13 10:01:43;;;;;;;;;;;29.90;98.30;;;;;;5046854;28;19924;-53
2021/07/13 10:04:08;;;;;;;;;;;29.80;96.30;;;;;;5067443;28;19991;-57
2021/07/13 10:06:34;;;;;;;;;;;29.80;98.20;;;;;;5069850;28;20012;-54
2021/07/13 10:09:00;;;;;;;;;;;29.80;98.10;;;;;;5064516;28;19908;-57
2021/07/13 10:11:28;;;;;;;;;;;29.70;96.70;;;;;;5068951;28;19909;-56
2021/07/13 10:13:53;;;;;;;;;;;29.70;99.30;;;;;;5065410;28;19912;-54
2021/07/13 10:16:19;;;;;;;;;;;29.90;97.80;;;;;;5068157;28;20293;-55
2021/07/13 10:18:46;;;;;;;;;;;29.70;97.20;;;;;;5046503;28;19917;-55
2021/07/13 10:21:12;;;;;;;;;;;29.70;98.50;;;;;;5067326;28;20342;-54
2021/07/13 10:23:37;;;;;;;;;;;29.90;98.20;;;;;;5069874;28;19915;-56
2021/07/13 10:26:03;;;;;;;;;;;30.00;96.90;;;;;;5066313;28;19916;-53
2021/07/13 10:28:33;;;;;;;;;;;30.10;97.00;;;;;;5069330;28;19912;-56
2021/07/13 10:30:58;;;;;;;;;;;30.00;97.30;;;;;;5065176;28;19912;-56
2021/07/13 10:33:28;;;;;;;;;;;30.00;96.00;;;;;;5067961;28;19909;-57
2021/07/13 10:35:56;;;;;;;;;;;29.90;95.30;;;;;;5069000;28;19931;-57
2021/07/13 10:38:23;;;;;;;;;;;29.70;96.30;;;;;;5069462;28;19999;-52
2021/07/13 10:40:51;;;;;;;;;;;29.90;97.20;;;;;;5065186;28;19915;-57
2021/07/13 10:43:17;;;;;;;;;;;29.80;95.60;;;;;;5068174;28;19920;-57
2021/07/13 10:45:43;;;;;;;;;;;29.50;97.20;;;;;;5064647;28;20318;-56
2021/07/13 10:48:15;;;;;;;;;;;29.40;96.30;;;;;;5066719;28;19912;-55
2021/07/13 10:50:46;;;;;;;;;;;29.60;97.20;;;;;;5070051;28;19909;-58
2021/07/13 10:53:45;;;;;;;;;;;29.80;96.50;;;;;;5065174;28;19909;-54
2021/07/13 10:56:10;;;;;;;;;;;29.90;96.40;;;;;;5019223;28;19946;-56
2021/07/13 10:58:39;;;;;;;;;;;30.20;96.60;;;;;;5068027;28;19942;-57
2021/07/13 11:01:06;;;;;;;;;;;30.20;95.60;;;;;;5067334;28;19928;-58
2021/07/13 11:03:31;;;;;;;;;;;30.00;95.60;;;;;;5063748;28;20356;-58
2021/07/13 11:05:57;;;;;;;;;;;30.00;95.40;;;;;;5069297;28;19919;-56
2021/07/13 11:08:47;;;;;;;;;;;29.80;95.20;;;;;;5066052;28;20062;-54
2021/07/13 11:11:19;;;;;;;;;;;29.40;94.80;;;;;;5053335;28;19916;-56
2021/07/13 11:14:03;;;;;;;;;;;29.10;95.70;;;;;;5065195;28;20290;-57
2021/07/13 11:16:33;;;;;;;;;;;29.20;97.20;;;;;;5063387;28;19995;-56
2021/07/13 11:19:00;;;;;;;;;;;29.20;97.40;;;;;;5064375;28;19916;-54
2021/07/13 11:21:38;;;;;;;;;;;29.40;97.70;;;;;;5049053;28;20008;-57
2021/07/13 11:24:03;;;;;;;;;;;29.40;96.00;;;;;;5069114;28;19916;-57
2021/07/13 11:26:29;;;;;;;;;;;29.20;95.80;;;;;;5068637;28;19909;-56
2021/07/13 11:28:56;;;;;;;;;;;29.10;95.60;;;;;;5072489;28;19913;-58
2021/07/13 11:31:28;;;;;;;;;;;29.00;96.20;;;;;;5069051;28;19916;-58
2021/07/13 11:33:56;;;;;;;;;;;29.30;95.20;;;;;;5070914;28;20329;-53
2021/07/13 11:36:26;;;;;;;;;;;29.30;95.00;;;;;;5053728;28;20375;-55
2021/07/13 11:38:52;;;;;;;;;;;29.30;95.30;;;;;;5073074;28;19913;-55
2021/07/13 11:41:19;;;;;;;;;;;29.20;94.50;;;;;;5067326;28;19916;-58
2021/07/13 11:43:49;;;;;;;;;;;29.20;95.30;;;;;;5073530;28;19962;-55
2021/07/13 11:46:22;;;;;;;;;;;29.30;94.90;;;;;;5064960;28;19996;-57
2021/07/13 11:49:14;;;;;;;;;;;29.40;94.20;;;;;;5073311;28;19915;-58
2021/07/13 11:51:41;;;;;;;;;;;29.30;94.50;;;;;;5062939;28;19999;-58
2021/07/13 11:54:10;;;;;;;;;;;29.40;95.60;;;;;;5071835;28;20498;-57
2021/07/13 11:56:37;;;;;;;;;;;29.50;96.10;;;;;;5068489;28;20326;-56
2021/07/13 11:59:03;;;;;;;;;;;29.60;94.80;;;;;;5071092;28;20008;-55
2021/07/13 12:01:29;;;;;;;;;;;29.70;95.80;;;;;;5067339;28;20038;-58
2021/07/13 12:04:00;;;;;;;;;;;29.70;94.50;;;;;;5052052;28;19915;-56
2021/07/13 12:06:26;;;;;;;;;;;29.60;94.40;;;;;;5054635;28;19943;-56
2021/07/13 12:09:09;;;;;;;;;;;29.60;94.50;;;;;;5069303;28;20400;-56
2021/07/13 12:11:40;;;;;;;;;;;29.50;94.80;;;;;;5071357;28;20376;-57
2021/07/13 12:14:08;;;;;;;;;;;29.50;93.30;;;;;;5066985;28;19909;-57
2021/07/13 12:16:34;;;;;;;;;;;29.30;93.50;;;;;;5071132;28;19909;-57
2021/07/13 12:19:19;;;;;;;;;;;29.20;94.80;;;;;;5067537;28;20003;-56
2021/07/13 12:21:48;;;;;;;;;;;29.20;94.50;;;;;;5070146;28;20365;-58
2021/07/13 12:24:18;;;;;;;;;;;29.10;94.80;;;;;;5071905;28;19912;-55
2021/07/13 12:26:57;;;;;;;;;;;29.20;94.90;;;;;;5051014;28;20370;-56
2021/07/13 12:29:24;;;;;;;;;;;29.10;94.80;;;;;;5072424;28;19979;-58
2021/07/13 12:31:51;;;;;;;;;;;29.20;95.40;;;;;;5067758;28;19915;-57
2021/07/13 12:34:38;;;;;;;;;;;29.20;94.30;;;;;;5070391;28;19909;-53
2021/07/13 12:37:10;;;;;;;;;;;29.30;94.30;;;;;;5070951;28;20351;-57
2021/07/13 12:39:36;;;;;;;;;;;29.50;94.30;;;;;;5067686;28;19913;-58
2021/07/13 12:42:03;;;;;;;;;;;29.60;95.10;;;;;;5070206;28;19956;-54
2021/07/13 12:44:30;;;;;;;;;;;29.60;93.70;;;;;;5066912;28;20019;-54
2021/07/13 12:47:13;;;;;;;;;;;29.50;93.60;;;;;;5069525;28;20390;-58
2021/07/13 12:49:39;;;;;;;;;;;29.50;93.60;;;;;;5067690;28;20267;-59
2021/07/13 12:52:11;;;;;;;;;;;29.40;93.70;;;;;;5071274;28;19912;-55
2021/07/13 12:54:56;;;;;;;;;;;29.50;93.50;;;;;;5071769;28;19915;-57
2021/07/13 12:57:29;;;;;;;;;;;29.40;94.00;;;;;;5065022;28;19909;-56
2021/07/13 13:00:04;;;;;;;;;;;29.40;94.40;;;;;;5071562;28;19960;-58
2021/07/13 13:02:29;;;;;;;;;;;29.50;93.90;;;;;;5088785;22;19924;-49
2021/07/13 13:04:55;;;;;;;;;;;29.50;93.50;;;;;;5067492;28;20556;-53
2021/07/13 13:07:21;;;;;;;;;;;29.60;93.70;;;;;;5071040;28;20007;-47
2021/07/13 13:09:46;;;;;;;;;;;29.70;93.00;;;;;;5063230;28;19913;-47
2021/07/13 13:12:12;;;;;;;;;;;29.80;93.10;;;;;;5062078;28;20283;-51
2021/07/13 13:14:37;;;;;;;;;;;29.90;92.40;;;;;;5070657;28;19959;-48
2021/07/13 13:17:05;;;;;;;;;;;30.00;92.60;;;;;;5070608;28;19912;-52
2021/07/13 13:19:32;;;;;;;;;;;30.20;93.30;;;;;;5070967;28;19912;-50
2021/07/13 13:21:57;;;;;;;;;;;30.10;92.30;;;;;;5070431;28;20028;-56
2021/07/13 13:24:23;;;;;;;;;;;29.90;92.00;;;;;;5070712;28;20434;-49
2021/07/13 13:26:48;;;;;;;;;;;30.10;92.10;;;;;;5070644;28;20355;-50
2021/07/13 13:29:14;;;;;;;;;;;30.00;92.20;;;;;;5070489;28;19919;-47
2021/07/13 13:31:39;;;;;;;;;;;30.10;91.20;;;;;;5070467;28;19951;-48
2021/07/13 13:34:04;;;;;;;;;;;30.00;92.50;;;;;;5069832;28;19908;-49
2021/07/13 13:36:33;;;;;;;;;;;29.90;91.70;;;;;;5069883;28;19908;-55
2021/07/13 13:39:15;;;;;;;;;;;29.90;92.20;;;;;;5069896;28;19917;-52
2021/07/13 13:41:41;;;;;;;;;;;30.00;91.70;;;;;;5070371;28;19951;-52
2021/07/13 13:44:06;;;;;;;;;;;30.10;92.10;;;;;;5051949;28;19915;-51
2021/07/13 13:46:32;;;;;;;;;;;30.20;92.30;;;;;;5069990;28;19909;-49
2021/07/13 13:48:57;;;;;;;;;;;30.30;90.70;;;;;;5069947;28;19915;-47
2021/07/13 13:51:23;;;;;;;;;;;30.30;91.50;;;;;;5070023;28;19935;-54
2021/07/13 13:53:48;;;;;;;;;;;30.50;90.80;;;;;;5070041;28;19908;-49
2021/07/13 13:56:15;;;;;;;;;;;30.60;90.90;;;;;;5070006;28;19991;-49
2021/07/13 13:58:41;;;;;;;;;;;30.60;91.80;;;;;;5070407;28;19912;-53
2021/07/13 14:01:11;;;;;;;;;;;30.60;91.30;;;;;;5069443;28;20561;-48
2021/07/13 14:03:36;;;;;;;;;;;30.60;90.80;;;;;;5070235;28;19908;-49
2021/07/13 14:06:02;;;;;;;;;;;30.50;91.10;;;;;;5069726;28;19908;-49
2021/07/13 14:08:27;;;;;;;;;;;30.40;90.80;;;;;;5070081;28;19908;-52
2021/07/13 14:10:53;;;;;;;;;;;30.30;90.40;;;;;;5070031;28;19908;-54
2021/07/13 14:13:18;;;;;;;;;;;30.10;89.50;;;;;;5070048;28;19969;-51
2021/07/13 14:15:44;;;;;;;;;;;30.10;91.10;;;;;;5069849;28;19909;-50
2021/07/13 14:18:09;;;;;;;;;;;30.00;93.20;;;;;;5051704;28;19928;-53
2021/07/13 14:20:35;;;;;;;;;;;29.80;94.30;;;;;;5070400;28;20286;-48